Ward, Alabama
Current Conditions -  °F | °C
As of 11:15 AM on Friday 19 Dec 2014 (Local Time) from KDYA Reporting Station
Overcast Overcast  
Wind Chill: 51°   Ceiling: 3800
Heat Index: 51°   Visibility: 10mi
Dew Point: 34°   Wind: 5mph
Humidity: 52%   Direction: 50°NE
Pressure: 30.21"   Gusts: NA
Location:  32.36°N, 88.28°W
Report Text: KDYA 191715Z AUTO 05004KT 10SM OVC038 10/01 A3021 RMK AO2 T01040010
Loading
Personal Weather Stations






























Interactive Weather Map New forecast layout! Learn more

10-Day Weather Forecast

Advertisements
Track Severe Weather on mobile